Terminal Aerodrome Forecast
Issued by NWS

Home | Current Version | Previous Version | Text Only | Print | Product List | Glossary On
Versions: 1 2 3 4 5 6 7 8 9 10 11 12 13 14 15 16 17 18
000
FTUS45 KRIW 301100
TAFPNA
TAF
KPNA 301122Z 3012/3112 VRB04KT P6SM VCFG FEW005 SCT050 BKN070
      TEMPO 3012/3015 4SM BR SCT005
     FM301500 VRB05KT P6SM SCT050 BKN120
     FM301900 VRB06KT P6SM VCSH SCT080 BKN140
     FM310200 VRB05KT P6SM FEW080 SCT150
      AMD LTD TO CLD VIS AND WIND=

USA.gov is the U.S. government's official web portal to all federal, state and local government web resources and services.